Terminal Aerodrome Forecast
Issued by NWS

Home | Current Version | Previous Version | Text Only | Print | Product List | Glossary On
Versions: 1 2 3 4 5 6 7 8 9 10 11 12 13 14 15 16 17 18 19
000
FTUS45 KPSR 251720
TAFSDL
TAF
KSDL 251720Z 2518/2618 19004KT P6SM SCT180
     FM252200 25010KT P6SM SCT080 SCT140
     FM260500 VRB04KT P6SM SKC=

USA.gov is the U.S. government's official web portal to all federal, state and local government web resources and services.